createdAt,value
2017-11-14T00:01:20.370Z,18.57
2017-11-14T00:03:48.684Z,17.03
2017-11-14T00:06:17.028Z,16.20
2017-11-14T00:08:46.105Z,14.27
2017-11-14T00:11:15.220Z,14.17
2017-11-14T00:13:44.327Z,14.20
2017-11-14T00:16:12.670Z,11.10
2017-11-14T00:18:40.990Z,12.67
2017-11-14T00:21:09.331Z,15.20
2017-11-14T00:23:38.427Z,13.77
2017-11-14T00:26:06.766Z,16.73
2017-11-14T00:28:35.089Z,16.50
2017-11-14T00:31:03.426Z,14.10
2017-11-14T00:33:31.727Z,19.80
2017-11-14T00:36:00.071Z,16.80
2017-11-14T00:38:28.385Z,18.80
2017-11-14T00:40:56.736Z,15.00
2017-11-14T00:43:25.058Z,17.17
2017-11-14T00:45:53.394Z,15.80
2017-11-14T00:48:21.726Z,22.33
2017-11-14T00:50:50.877Z,18.67
2017-11-14T00:53:19.197Z,22.70
2017-11-14T00:55:48.278Z,54.47
2017-11-14T00:58:16.619Z,78.90
2017-11-14T01:00:44.939Z,45.60
2017-11-14T01:03:14.054Z,46.07
2017-11-14T01:05:43.147Z,40.23
2017-11-14T01:08:12.280Z,70.53
2017-11-14T01:10:40.604Z,52.87
2017-11-14T01:13:08.939Z,54.50
2017-11-14T01:15:37.252Z,55.30
2017-11-14T01:18:05.606Z,80.73
2017-11-14T01:20:33.923Z,59.70
2017-11-14T01:23:02.285Z,60.47
2017-11-14T01:25:30.603Z,50.27
2017-11-14T01:28:09.145Z,70.50
2017-11-14T01:30:37.462Z,54.07
2017-11-14T01:33:05.802Z,59.87
2017-11-14T01:35:34.112Z,54.43
2017-11-14T01:38:02.450Z,99.43
2017-11-14T01:40:30.785Z,74.60
2017-11-14T01:42:59.910Z,101.47
2017-11-14T01:45:28.229Z,92.10
2017-11-14T01:47:56.581Z,26.17
2017-11-14T01:50:24.906Z,30.90
2017-11-14T01:52:53.267Z,72.40
2017-11-14T01:55:21.586Z,96.77
2017-11-14T01:57:50.690Z,69.77
2017-11-14T02:00:31.531Z,63.60
2017-11-14T02:02:59.893Z,33.23
2017-11-14T02:05:28.214Z,70.93
2017-11-14T02:07:56.583Z,103.30
2017-11-14T02:10:24.975Z,88.00
2017-11-14T02:12:54.070Z,69.27
2017-11-14T02:15:23.173Z,73.90
2017-11-14T02:17:52.266Z,49.10
2017-11-14T02:20:21.369Z,67.77
2017-11-14T02:22:50.460Z,25.50
2017-11-14T02:25:18.814Z,43.40
2017-11-14T02:27:52.998Z,19.70
2017-11-14T02:30:21.379Z,21.40
2017-11-14T02:32:49.705Z,44.13
2017-11-14T02:35:18.834Z,19.67
2017-11-14T02:37:47.148Z,21.60
2017-11-14T02:40:15.475Z,24.33
2017-11-14T02:42:43.812Z,38.90
2017-11-14T02:45:12.190Z,26.23
2017-11-14T02:47:40.500Z,12.40
2017-11-14T02:50:08.862Z,14.67
2017-11-14T02:52:37.956Z,16.50
2017-11-14T02:55:06.296Z,17.23
2017-11-14T02:57:34.617Z,14.43
2017-11-14T03:00:02.942Z,19.57
2017-11-14T03:02:31.261Z,30.43
2017-11-14T03:04:59.614Z,15.47
2017-11-14T03:07:27.944Z,17.73
2017-11-14T03:09:57.042Z,12.63
2017-11-14T03:12:26.118Z,15.50
2017-11-14T03:14:54.434Z,14.37
2017-11-14T03:17:22.774Z,11.93
2017-11-14T03:19:51.077Z,16.13
2017-11-14T03:22:20.184Z,13.73
2017-11-14T03:24:48.507Z,14.73
2017-11-14T03:27:16.873Z,12.93
2017-11-14T03:29:45.202Z,11.50
2017-11-14T03:32:14.296Z,15.03
2017-11-14T03:34:42.620Z,11.60
2017-11-14T03:37:10.962Z,10.30
2017-11-14T03:39:40.051Z,16.90
2017-11-14T03:42:09.169Z,11.93
2017-11-14T03:44:37.575Z,11.30
2017-11-14T03:47:05.907Z,13.00
2017-11-14T03:49:34.987Z,13.30
2017-11-14T03:52:03.328Z,10.77
2017-11-14T03:54:31.641Z,11.53
2017-11-14T03:57:00.094Z,10.80
2017-11-14T03:59:28.411Z,12.23
2017-11-14T04:01:56.954Z,11.37
2017-11-14T04:04:25.262Z,11.87
2017-11-14T04:06:53.597Z,12.43
2017-11-14T04:09:21.898Z,9.60
2017-11-14T04:11:50.235Z,13.20
2017-11-14T04:14:18.556Z,9.03
2017-11-14T04:16:46.902Z,8.90
2017-11-14T04:19:15.239Z,11.67
2017-11-14T04:21:43.550Z,11.10
2017-11-14T04:24:12.650Z,10.00
2017-11-14T04:26:40.964Z,8.90
2017-11-14T04:29:10.066Z,14.27
2017-11-14T04:31:38.382Z,8.07
2017-11-14T04:34:07.477Z,10.13
2017-11-14T04:36:36.563Z,11.13
2017-11-14T04:39:04.895Z,10.17
2017-11-14T04:41:33.206Z,9.40
2017-11-14T04:44:01.540Z,9.00
2017-11-14T04:46:29.845Z,9.47
2017-11-14T04:48:58.174Z,8.30
2017-11-14T04:51:27.250Z,8.67
2017-11-14T04:53:55.580Z,8.37
2017-11-14T04:56:23.891Z,10.83
2017-11-14T04:58:52.250Z,10.77
2017-11-14T05:01:20.562Z,13.90
2017-11-14T05:03:48.912Z,53.50
2017-11-14T05:06:17.240Z,119.73
2017-11-14T05:08:46.341Z,96.03
2017-11-14T05:11:15.427Z,19.20
2017-11-14T05:13:44.522Z,15.00
2017-11-14T05:16:12.828Z,13.27
2017-11-14T05:18:41.169Z,11.60
2017-11-14T05:21:09.479Z,10.37
2017-11-14T05:23:37.858Z,10.73
2017-11-14T05:26:06.169Z,10.40
2017-11-14T05:28:34.480Z,11.90
2017-11-14T05:31:02.817Z,11.30
2017-11-14T05:33:31.131Z,10.07
2017-11-14T05:35:59.474Z,10.73
2017-11-14T05:38:27.793Z,13.57
2017-11-14T05:40:56.137Z,10.63
2017-11-14T05:43:24.448Z,9.33
2017-11-14T05:45:52.785Z,14.63
2017-11-14T05:48:21.102Z,9.23
2017-11-14T05:50:49.428Z,8.17
2017-11-14T05:53:17.746Z,11.17
2017-11-14T05:55:46.072Z,8.70
2017-11-14T05:58:15.168Z,10.20
2017-11-14T06:00:44.288Z,12.67
2017-11-14T06:03:12.610Z,9.40
2017-11-14T06:05:40.942Z,9.33
2017-11-14T06:08:09.255Z,11.70
2017-11-14T06:10:37.605Z,12.30
2017-11-14T06:13:05.957Z,11.40
2017-11-14T06:15:35.032Z,8.97
2017-11-14T06:18:04.117Z,8.00
2017-11-14T06:20:32.463Z,9.23
2017-11-14T06:23:00.767Z,11.23
2017-11-14T06:25:29.095Z,11.50
2017-11-14T06:27:57.411Z,16.83
2017-11-14T06:30:25.739Z,18.73
2017-11-14T06:32:54.042Z,26.63
2017-11-14T06:35:22.385Z,22.27
2017-11-14T06:37:51.465Z,14.17
2017-11-14T06:40:19.801Z,16.67
2017-11-14T06:42:48.107Z,15.07
2017-11-14T06:45:16.435Z,13.10
2017-11-14T06:47:44.742Z,15.20
2017-11-14T06:50:13.076Z,14.23
2017-11-14T06:52:42.148Z,12.87
2017-11-14T06:55:10.499Z,14.27
2017-11-14T06:57:38.813Z,16.83
2017-11-14T07:00:07.117Z,15.00
2017-11-14T07:02:35.465Z,14.60
2017-11-14T07:05:03.777Z,16.97
2017-11-14T07:07:32.113Z,15.43
2017-11-14T07:10:00.430Z,14.47
2017-11-14T07:12:29.530Z,22.90
2017-11-14T07:14:57.861Z,25.63
2017-11-14T07:17:26.198Z,20.20
2017-11-14T07:19:54.530Z,17.80
2017-11-14T07:22:22.842Z,19.27
2017-11-14T07:24:51.172Z,22.70
2017-11-14T07:27:19.485Z,28.70
2017-11-14T07:29:47.814Z,18.60
2017-11-14T07:32:16.122Z,15.90
2017-11-14T07:34:44.465Z,14.83
2017-11-14T07:37:12.786Z,21.50
2017-11-14T07:39:41.911Z,19.10
2017-11-14T07:42:10.230Z,23.37
2017-11-14T07:44:38.576Z,22.47
2017-11-14T07:47:06.893Z,21.97
2017-11-14T07:49:35.238Z,17.23
2017-11-14T07:52:03.555Z,25.83
2017-11-14T07:54:31.879Z,22.30
2017-11-14T07:57:00.975Z,16.50
2017-11-14T07:59:30.054Z,11.90
2017-11-14T08:01:59.636Z,14.83
2017-11-14T08:04:27.947Z,13.23
2017-11-14T08:06:57.056Z,24.53
2017-11-14T08:09:25.374Z,16.23
2017-11-14T08:11:53.704Z,13.83
2017-11-14T08:14:22.782Z,12.30
2017-11-14T08:16:51.110Z,13.03
2017-11-14T08:19:19.430Z,13.93
2017-11-14T08:21:47.758Z,11.20
2017-11-14T08:24:16.064Z,14.63
2017-11-14T08:26:44.388Z,17.67
2017-11-14T08:29:13.460Z,13.37
2017-11-14T08:31:41.778Z,12.37
2017-11-14T08:34:10.105Z,15.67
2017-11-14T08:36:38.443Z,22.53
2017-11-14T08:39:06.748Z,16.37
2017-11-14T08:41:35.076Z,14.17
2017-11-14T08:44:04.167Z,19.30
2017-11-14T08:46:33.278Z,22.23
2017-11-14T08:49:01.592Z,22.77
2017-11-14T08:51:29.918Z,16.67
2017-11-14T08:53:58.248Z,24.13
2017-11-14T08:56:26.585Z,22.83
2017-11-14T08:58:55.659Z,17.13
2017-11-14T09:01:23.999Z,25.57
2017-11-14T09:03:52.317Z,25.97
2017-11-14T09:06:21.451Z,21.90
2017-11-14T09:08:49.769Z,16.67
2017-11-14T09:11:18.116Z,26.03
2017-11-14T09:13:46.422Z,28.23
2017-11-14T09:16:14.759Z,19.90
2017-11-14T09:18:46.601Z,26.10
2017-11-14T09:21:15.721Z,22.93
2017-11-14T09:23:44.056Z,22.57
2017-11-14T09:26:12.399Z,30.13
2017-11-14T09:28:40.726Z,33.20
2017-11-14T09:31:09.069Z,29.97
2017-11-14T09:33:37.425Z,32.47
2017-11-14T09:36:05.770Z,32.10
2017-11-14T09:38:34.854Z,28.77
2017-11-14T09:44:03.806Z,25.10
2017-11-14T09:46:32.150Z,28.37
2017-11-14T09:49:00.474Z,26.60
2017-11-14T09:51:28.826Z,35.83
2017-11-14T09:53:57.178Z,27.13
2017-11-14T09:56:26.312Z,24.70
2017-11-14T09:58:54.646Z,24.90
2017-11-14T10:01:22.967Z,36.73
2017-11-14T10:03:51.307Z,33.67
2017-11-14T10:06:19.630Z,32.13
2017-11-14T10:08:47.972Z,36.03
2017-11-14T10:11:16.312Z,26.10
2017-11-14T10:13:44.660Z,27.63
2017-11-14T10:16:12.997Z,38.03
2017-11-14T10:18:41.348Z,33.93
2017-11-14T10:21:09.683Z,24.87
2017-11-14T10:23:38.035Z,28.03
2017-11-14T10:26:06.363Z,28.30
2017-11-14T10:28:34.699Z,22.43
2017-11-14T10:31:03.800Z,30.00
2017-11-14T10:33:32.138Z,36.90
2017-11-14T10:36:00.454Z,35.43
2017-11-14T10:38:28.789Z,44.50
2017-11-14T10:40:57.138Z,38.37
2017-11-14T10:43:25.463Z,26.73
2017-11-14T10:45:53.807Z,23.67
2017-11-14T10:48:22.138Z,30.13
2017-11-14T10:50:50.491Z,32.13
2017-11-14T10:53:18.804Z,28.37
2017-11-14T10:55:47.133Z,28.63
2017-11-14T10:58:15.442Z,29.50
2017-11-14T11:00:43.797Z,32.83
2017-11-14T11:03:12.187Z,38.10
2017-11-14T11:05:40.511Z,41.00
2017-11-14T11:08:08.841Z,26.83
2017-11-14T11:10:37.174Z,34.30
2017-11-14T11:13:06.271Z,37.47
2017-11-14T11:15:35.343Z,28.33
2017-11-14T11:18:03.678Z,27.43
2017-11-14T11:20:32.759Z,22.20
2017-11-14T11:23:01.113Z,33.07
2017-11-14T11:25:29.430Z,25.87
2017-11-14T11:27:57.778Z,24.73
2017-11-14T11:30:26.114Z,26.10
2017-11-14T11:32:54.458Z,29.57
2017-11-14T11:35:22.789Z,21.87
2017-11-14T11:37:51.986Z,25.47
2017-11-14T11:40:20.295Z,20.23
2017-11-14T11:42:49.415Z,26.30
2017-11-14T11:45:17.744Z,20.83
2017-11-14T11:47:46.069Z,21.00
2017-11-14T11:50:14.386Z,27.20
2017-11-14T11:52:42.731Z,17.90
2017-11-14T11:55:11.034Z,24.83
2017-11-14T11:57:39.372Z,23.47
2017-11-14T12:00:07.700Z,21.87
2017-11-14T12:02:36.043Z,18.70
2017-11-14T12:05:04.375Z,19.13
2017-11-14T12:07:32.723Z,18.87
2017-11-14T12:10:01.046Z,22.17
2017-11-14T12:12:30.134Z,28.13
2017-11-14T12:14:59.239Z,24.80
2017-11-14T12:17:28.315Z,27.13
2017-11-14T12:19:56.661Z,15.60
2017-11-14T12:22:24.979Z,20.23
2017-11-14T12:24:53.330Z,21.80
2017-11-14T12:27:21.667Z,14.93
2017-11-14T12:29:49.995Z,20.77
2017-11-14T12:32:18.328Z,25.20
2017-11-14T12:34:46.638Z,21.13
2017-11-14T12:37:14.984Z,26.27
2017-11-14T12:39:44.062Z,16.77
2017-11-14T12:42:12.393Z,19.03
2017-11-14T12:44:40.702Z,22.87
2017-11-14T12:47:09.023Z,14.90
2017-11-14T12:49:37.330Z,24.87
2017-11-14T12:52:05.684Z,16.30
2017-11-14T12:54:34.753Z,28.33
2017-11-14T12:57:03.826Z,23.10
2017-11-14T12:59:32.159Z,17.77
2017-11-14T13:02:04.028Z,17.30
2017-11-14T13:04:32.355Z,17.30
2017-11-14T13:07:00.654Z,21.00
2017-11-14T13:09:29.002Z,22.60
2017-11-14T13:11:57.306Z,20.73
2017-11-14T13:14:26.409Z,19.53
2017-11-14T13:16:54.714Z,15.17
2017-11-14T13:19:23.067Z,20.50
2017-11-14T13:21:52.142Z,16.90
2017-11-14T13:24:21.227Z,18.53
2017-11-14T13:26:49.550Z,31.23
2017-11-14T13:29:17.882Z,18.97
2017-11-14T13:31:46.207Z,18.50
2017-11-14T13:34:14.552Z,25.50
2017-11-14T13:36:42.864Z,22.30
2017-11-14T13:39:11.959Z,20.03
2017-11-14T13:41:41.031Z,22.33
2017-11-14T13:44:09.370Z,24.10
2017-11-14T13:46:37.692Z,22.43
2017-11-14T13:49:06.786Z,21.43
2017-11-14T13:51:35.091Z,22.47
2017-11-14T13:54:03.422Z,23.90
2017-11-14T13:56:31.738Z,22.13
2017-11-14T13:59:00.832Z,19.33
2017-11-14T14:01:29.903Z,21.93
2017-11-14T14:03:58.249Z,24.33
2017-11-14T14:06:26.556Z,19.20
2017-11-14T14:08:54.918Z,26.67
2017-11-14T14:11:23.230Z,20.43
2017-11-14T14:13:52.326Z,27.43
2017-11-14T14:16:20.630Z,22.13
2017-11-14T14:18:49.729Z,23.00
2017-11-14T14:21:18.049Z,22.87
2017-11-14T14:23:46.407Z,20.73
2017-11-14T14:26:14.716Z,21.70
2017-11-14T14:28:43.032Z,23.33
2017-11-14T14:31:12.123Z,21.47
2017-11-14T14:33:41.205Z,18.93
2017-11-14T14:36:10.306Z,21.43
2017-11-14T14:38:39.385Z,18.03
2017-11-14T14:41:07.728Z,25.30
2017-11-14T14:43:36.034Z,19.47
2017-11-14T14:46:04.358Z,14.53
2017-11-14T14:48:32.667Z,19.87
2017-11-14T14:51:00.991Z,16.27
2017-11-14T14:53:30.068Z,15.80
2017-11-14T14:55:58.393Z,24.20
2017-11-14T14:58:26.715Z,18.43
2017-11-14T15:00:55.043Z,21.67
2017-11-14T15:03:23.342Z,23.80
2017-11-14T15:05:51.681Z,22.90
2017-11-14T15:08:20.759Z,20.83
2017-11-14T15:10:49.096Z,22.70
2017-11-14T15:13:17.397Z,17.80
2017-11-14T15:15:45.726Z,24.13
2017-11-14T15:18:14.042Z,19.83
2017-11-14T15:20:42.372Z,29.13
2017-11-14T15:23:11.450Z,21.00
2017-11-14T15:25:39.813Z,24.70
2017-11-14T15:28:08.118Z,25.70
2017-11-14T15:30:37.206Z,23.53
2017-11-14T15:33:05.559Z,21.03
2017-11-14T15:35:33.888Z,25.20
2017-11-14T15:38:02.985Z,21.63
2017-11-14T15:40:32.054Z,27.63
2017-11-14T15:43:00.386Z,33.43
2017-11-14T15:45:28.694Z,26.10
2017-11-14T15:47:57.026Z,30.73
2017-11-14T15:50:25.358Z,25.37
2017-11-14T15:52:53.690Z,23.80
2017-11-14T15:55:21.993Z,33.97
2017-11-14T15:57:50.319Z,45.23
2017-11-14T16:00:19.393Z,31.63
2017-11-14T16:02:47.739Z,39.50
2017-11-14T16:05:16.046Z,37.90
2017-11-14T16:07:44.371Z,30.80
2017-11-14T16:10:12.682Z,34.13
2017-11-14T16:12:41.034Z,48.50
2017-11-14T16:15:09.347Z,47.13
2017-11-14T16:17:37.672Z,67.50
2017-11-14T16:20:06.738Z,82.27
2017-11-14T16:22:35.073Z,45.63
2017-11-14T16:25:03.391Z,37.57
2017-11-14T16:27:31.722Z,32.33
2017-11-14T16:30:00.058Z,29.53
2017-11-14T16:32:28.421Z,29.53
2017-11-14T16:34:56.732Z,32.77
2017-11-14T16:37:25.819Z,37.67
2017-11-14T16:39:54.145Z,31.83
2017-11-14T16:45:22.332Z,27.00
2017-11-14T16:47:50.683Z,30.40
2017-11-14T16:50:19.781Z,28.30
2017-11-14T16:52:48.852Z,28.87
2017-11-14T16:55:17.180Z,34.40
2017-11-14T16:57:45.488Z,29.70
2017-11-14T17:00:13.826Z,45.67
2017-11-14T17:02:42.134Z,35.77
2017-11-14T17:05:11.376Z,66.37
2017-11-14T17:07:39.690Z,38.90
2017-11-14T17:10:08.033Z,45.87
2017-11-14T17:12:36.352Z,40.60
2017-11-14T17:15:04.707Z,43.53
2017-11-14T17:17:33.785Z,45.60
2017-11-14T17:20:02.126Z,42.23
2017-11-14T17:22:30.436Z,34.23
2017-11-14T17:24:58.791Z,44.40
2017-11-14T17:27:27.111Z,52.53
2017-11-14T17:29:56.218Z,39.57
2017-11-14T17:32:25.291Z,42.30
2017-11-14T17:34:53.626Z,37.87
2017-11-14T17:37:21.927Z,51.97
2017-11-14T17:39:50.288Z,39.33
2017-11-14T17:42:18.603Z,46.70
2017-11-14T17:44:46.950Z,45.57
2017-11-14T17:47:16.026Z,33.23
2017-11-14T17:49:44.364Z,37.23
2017-11-14T17:52:12.686Z,48.70
2017-11-14T17:54:41.081Z,44.73
2017-11-14T17:57:09.453Z,47.63
2017-11-14T17:59:37.764Z,42.87
2017-11-14T18:02:06.115Z,53.50
2017-11-14T18:04:34.441Z,43.87
2017-11-14T18:07:02.770Z,49.13
2017-11-14T18:09:31.090Z,56.07
2017-11-14T18:12:00.022Z,54.63
2017-11-14T18:14:28.335Z,53.97
2017-11-14T18:16:56.662Z,58.47
2017-11-14T18:19:25.732Z,50.03
2017-11-14T18:21:54.071Z,54.13
2017-11-14T18:24:22.381Z,60.80
2017-11-14T18:26:50.719Z,78.83
2017-11-14T18:29:19.042Z,104.30
2017-11-14T18:31:47.407Z,76.33
2017-11-14T18:34:15.735Z,64.67
2017-11-14T18:36:44.079Z,47.73
2017-11-14T18:39:12.396Z,50.63
2017-11-14T18:41:40.737Z,47.13
2017-11-14T18:44:09.062Z,46.23
2017-11-14T18:46:37.408Z,54.77
2017-11-14T18:49:06.486Z,72.37
2017-11-14T18:51:34.835Z,57.27
2017-11-14T18:54:03.158Z,50.17
2017-11-14T18:56:32.263Z,56.93
2017-11-14T18:59:01.352Z,63.93
2017-11-14T19:01:29.662Z,57.07
2017-11-14T19:03:58.011Z,62.17
2017-11-14T19:06:26.327Z,57.33
2017-11-14T19:08:54.677Z,58.93
2017-11-14T19:11:23.754Z,61.33
2017-11-14T19:13:52.090Z,65.50
2017-11-14T19:16:20.416Z,65.63
2017-11-14T19:18:49.522Z,59.57
2017-11-14T19:21:18.605Z,56.33
2017-11-14T19:23:46.939Z,59.47
2017-11-14T19:26:15.254Z,63.50
2017-11-14T19:28:43.581Z,62.03
2017-11-14T19:31:11.892Z,62.80
2017-11-14T19:33:40.278Z,56.63
2017-11-14T19:36:08.587Z,58.43
2017-11-14T19:38:37.694Z,72.07
2017-11-14T19:41:06.769Z,66.20
2017-11-14T19:43:35.105Z,67.00
2017-11-14T19:46:03.426Z,56.17
2017-11-14T19:48:31.766Z,53.50
2017-11-14T19:51:00.073Z,47.70
2017-11-14T19:53:28.431Z,55.87
2017-11-14T19:55:56.737Z,48.50
2017-11-14T19:58:25.084Z,50.47
2017-11-14T20:00:53.403Z,49.60
2017-11-14T20:03:21.732Z,66.93
2017-11-14T20:05:50.048Z,61.70
2017-11-14T20:08:18.414Z,48.30
2017-11-14T20:10:47.669Z,45.53
2017-11-14T20:13:15.979Z,42.13
2017-11-14T20:15:44.322Z,49.90
2017-11-14T20:18:12.636Z,44.20
2017-11-14T20:20:40.994Z,44.43
2017-11-14T20:23:09.353Z,48.20
2017-11-14T20:25:38.441Z,52.53
2017-11-14T20:28:07.533Z,46.47
2017-11-14T20:30:36.650Z,52.03
2017-11-14T20:33:04.962Z,48.50
2017-11-14T20:35:33.299Z,46.33
2017-11-14T20:38:02.383Z,48.47
2017-11-14T20:40:30.742Z,47.13
2017-11-14T20:42:59.057Z,51.87
2017-11-14T20:45:27.407Z,48.00
2017-11-14T20:47:55.719Z,54.23
2017-11-14T20:50:24.076Z,43.47
2017-11-14T20:52:53.172Z,40.70
2017-11-14T20:55:21.503Z,44.80
2017-11-14T20:57:49.827Z,40.87
2017-11-14T21:00:18.161Z,43.10
2017-11-14T21:02:50.073Z,39.57
2017-11-14T21:05:19.183Z,44.07
2017-11-14T21:07:47.532Z,49.53
2017-11-14T21:10:15.899Z,48.57
2017-11-14T21:12:47.782Z,51.07
2017-11-14T21:15:16.137Z,43.57
2017-11-14T21:17:44.452Z,44.23
2017-11-14T21:20:13.535Z,43.90
2017-11-14T21:22:41.883Z,47.77
2017-11-14T21:25:10.201Z,52.57
2017-11-14T21:27:39.298Z,43.93
2017-11-14T21:30:08.378Z,45.90
2017-11-14T21:32:36.705Z,39.87
2017-11-14T21:35:05.014Z,41.63
2017-11-14T21:37:33.371Z,48.73
2017-11-14T21:40:01.682Z,44.23
2017-11-14T21:42:30.037Z,44.57
2017-11-14T21:44:59.112Z,43.23
2017-11-14T21:47:27.453Z,57.10
2017-11-14T21:49:55.766Z,53.30
2017-11-14T21:52:24.102Z,45.57
2017-11-14T21:54:52.419Z,40.87
2017-11-14T21:57:20.806Z,46.60
2017-11-14T21:59:49.111Z,45.80
2017-11-14T22:02:17.451Z,39.30
2017-11-14T22:04:45.783Z,47.60
2017-11-14T22:07:14.117Z,46.73
2017-11-14T22:09:42.439Z,56.73
2017-11-14T22:12:10.861Z,43.13
2017-11-14T22:14:39.942Z,43.43
2017-11-14T22:17:09.022Z,45.90
2017-11-14T22:19:37.374Z,35.80
2017-11-14T22:22:05.689Z,43.30
2017-11-14T22:24:34.022Z,56.80
2017-11-14T22:27:02.334Z,51.40
2017-11-14T22:29:30.676Z,61.00
2017-11-14T22:31:59.004Z,42.33
2017-11-14T22:34:28.123Z,39.77
2017-11-14T22:36:57.202Z,53.47
2017-11-14T22:39:26.317Z,46.13
2017-11-14T22:41:55.399Z,48.37
2017-11-14T22:44:24.498Z,49.87
2017-11-14T22:46:52.832Z,45.70
2017-11-14T22:49:21.175Z,44.10
2017-11-14T22:51:49.483Z,46.90
2017-11-14T22:54:17.827Z,53.30
2017-11-14T22:56:46.140Z,51.73
2017-11-14T22:59:14.500Z,51.73
2017-11-14T23:01:42.804Z,53.67
2017-11-14T23:04:11.159Z,55.50
2017-11-14T23:06:39.474Z,50.20
2017-11-14T23:09:07.820Z,54.03
2017-11-14T23:11:36.131Z,47.73
2017-11-14T23:14:04.485Z,53.63
2017-11-14T23:16:32.834Z,52.10
2017-11-14T23:19:01.150Z,56.40
2017-11-14T23:21:29.495Z,43.53
2017-11-14T23:23:57.832Z,46.23
2017-11-14T23:26:26.150Z,41.47
2017-11-14T23:28:54.480Z,51.13
2017-11-14T23:31:22.795Z,52.00
2017-11-14T23:33:51.910Z,51.07
2017-11-14T23:36:20.248Z,51.47
2017-11-14T23:38:48.588Z,51.03
2017-11-14T23:41:16.903Z,60.57
2017-11-14T23:43:45.243Z,59.63
2017-11-14T23:46:13.563Z,51.77
2017-11-14T23:48:41.891Z,54.93
2017-11-14T23:51:10.206Z,56.43
2017-11-14T23:53:38.620Z,62.13
2017-11-14T23:56:06.942Z,56.03
2017-11-14T23:58:35.255Z,45.03
